sensor_id;sensor_type;location;lat;lon;timestamp;P1;durP1;ratioP1;P2;durP2;ratioP2
16119;SDS011;12670;53.502;10.252;2023-07-20T00:02:02;3.40;;;1.80;;
16119;SDS011;12670;53.502;10.252;2023-07-20T00:05:06;6.23;;;1.70;;
16119;SDS011;12670;53.502;10.252;2023-07-20T00:08:10;2.40;;;1.70;;
16119;SDS011;12670;53.502;10.252;2023-07-20T00:11:13;3.90;;;2.20;;
16119;SDS011;12670;53.502;10.252;2023-07-20T00:14:16;4.07;;;2.10;;
16119;SDS011;12670;53.502;10.252;2023-07-20T00:17:19;2.53;;;1.77;;
16119;SDS011;12670;53.502;10.252;2023-07-20T00:20:23;2.63;;;1.80;;
16119;SDS011;12670;53.502;10.252;2023-07-20T00:23:28;4.00;;;2.17;;
16119;SDS011;12670;53.502;10.252;2023-07-20T00:26:30;4.63;;;1.87;;
16119;SDS011;12670;53.502;10.252;2023-07-20T00:29:33;4.67;;;2.30;;
16119;SDS011;12670;53.502;10.252;2023-07-20T00:32:36;3.40;;;2.07;;
16119;SDS011;12670;53.502;10.252;2023-07-20T00:35:39;2.33;;;1.80;;
16119;SDS011;12670;53.502;10.252;2023-07-20T00:38:43;3.87;;;2.30;;
16119;SDS011;12670;53.502;10.252;2023-07-20T00:41:46;4.10;;;2.20;;
16119;SDS011;12670;53.502;10.252;2023-07-20T00:44:48;3.03;;;2.20;;
16119;SDS011;12670;53.502;10.252;2023-07-20T00:47:51;6.00;;;2.40;;
16119;SDS011;12670;53.502;10.252;2023-07-20T00:50:54;5.00;;;2.30;;
16119;SDS011;12670;53.502;10.252;2023-07-20T00:53:58;3.13;;;2.10;;
16119;SDS011;12670;53.502;10.252;2023-07-20T00:57:01;4.57;;;2.20;;
16119;SDS011;12670;53.502;10.252;2023-07-20T01:00:05;3.37;;;2.23;;
16119;SDS011;12670;53.502;10.252;2023-07-20T01:03:09;4.07;;;2.80;;
16119;SDS011;12670;53.502;10.252;2023-07-20T01:06:14;3.67;;;2.40;;
16119;SDS011;12670;53.502;10.252;2023-07-20T01:09:26;3.63;;;2.53;;
16119;SDS011;12670;53.502;10.252;2023-07-20T01:12:33;7.17;;;2.80;;
16119;SDS011;12670;53.502;10.252;2023-07-20T01:15:43;4.77;;;2.70;;
16119;SDS011;12670;53.502;10.252;2023-07-20T01:18:51;6.93;;;2.53;;
16119;SDS011;12670;53.502;10.252;2023-07-20T01:21:55;4.30;;;2.73;;
16119;SDS011;12670;53.502;10.252;2023-07-20T01:25:15;8.30;;;3.10;;
16119;SDS011;12670;53.502;10.252;2023-07-20T01:28:32;4.50;;;2.30;;
16119;SDS011;12670;53.502;10.252;2023-07-20T01:31:43;3.50;;;2.40;;
16119;SDS011;12670;53.502;10.252;2023-07-20T01:34:47;5.73;;;2.40;;
16119;SDS011;12670;53.502;10.252;2023-07-20T01:37:51;3.73;;;2.40;;
16119;SDS011;12670;53.502;10.252;2023-07-20T01:40:55;3.13;;;2.40;;
16119;SDS011;12670;53.502;10.252;2023-07-20T01:44:00;8.90;;;2.70;;
16119;SDS011;12670;53.502;10.252;2023-07-20T01:47:04;7.93;;;3.60;;
16119;SDS011;12670;53.502;10.252;2023-07-20T01:50:07;6.83;;;2.97;;
16119;SDS011;12670;53.502;10.252;2023-07-20T01:53:10;6.03;;;3.30;;
16119;SDS011;12670;53.502;10.252;2023-07-20T01:56:13;7.20;;;3.00;;
16119;SDS011;12670;53.502;10.252;2023-07-20T01:59:16;6.27;;;3.07;;
16119;SDS011;12670;53.502;10.252;2023-07-20T02:02:20;5.17;;;3.13;;
16119;SDS011;12670;53.502;10.252;2023-07-20T02:05:23;5.63;;;3.13;;
16119;SDS011;12670;53.502;10.252;2023-07-20T02:08:26;4.33;;;2.77;;
16119;SDS011;12670;53.502;10.252;2023-07-20T02:11:28;6.90;;;3.40;;
16119;SDS011;12670;53.502;10.252;2023-07-20T02:14:31;8.10;;;3.63;;
16119;SDS011;12670;53.502;10.252;2023-07-20T02:17:35;6.20;;;3.67;;
16119;SDS011;12670;53.502;10.252;2023-07-20T02:20:40;7.07;;;3.30;;
16119;SDS011;12670;53.502;10.252;2023-07-20T02:23:42;5.50;;;3.47;;
16119;SDS011;12670;53.502;10.252;2023-07-20T02:26:45;13.03;;;4.00;;
16119;SDS011;12670;53.502;10.252;2023-07-20T02:29:48;7.03;;;4.00;;
16119;SDS011;12670;53.502;10.252;2023-07-20T02:32:53;7.40;;;4.37;;
16119;SDS011;12670;53.502;10.252;2023-07-20T02:35:55;7.10;;;3.90;;
16119;SDS011;12670;53.502;10.252;2023-07-20T02:38:58;10.37;;;4.37;;
16119;SDS011;12670;53.502;10.252;2023-07-20T02:42:01;5.80;;;3.93;;
16119;SDS011;12670;53.502;10.252;2023-07-20T02:45:04;6.43;;;3.53;;
16119;SDS011;12670;53.502;10.252;2023-07-20T02:48:09;6.00;;;3.43;;
16119;SDS011;12670;53.502;10.252;2023-07-20T02:51:12;6.17;;;3.63;;
16119;SDS011;12670;53.502;10.252;2023-07-20T02:54:14;5.70;;;3.77;;
16119;SDS011;12670;53.502;10.252;2023-07-20T02:57:17;6.03;;;3.40;;
16119;SDS011;12670;53.502;10.252;2023-07-20T03:00:20;4.83;;;3.33;;
16119;SDS011;12670;53.502;10.252;2023-07-20T03:03:25;6.40;;;3.37;;
16119;SDS011;12670;53.502;10.252;2023-07-20T03:06:28;5.63;;;3.20;;
16119;SDS011;12670;53.502;10.252;2023-07-20T03:09:32;4.40;;;3.23;;
16119;SDS011;12670;53.502;10.252;2023-07-20T03:12:35;3.30;;;2.77;;
16119;SDS011;12670;53.502;10.252;2023-07-20T03:15:37;4.83;;;3.40;;
16119;SDS011;12670;53.502;10.252;2023-07-20T03:18:42;5.37;;;3.47;;
16119;SDS011;12670;53.502;10.252;2023-07-20T03:21:44;3.97;;;3.10;;
16119;SDS011;12670;53.502;10.252;2023-07-20T03:24:47;4.17;;;3.43;;
16119;SDS011;12670;53.502;10.252;2023-07-20T03:27:50;4.70;;;2.90;;
16119;SDS011;12670;53.502;10.252;2023-07-20T03:30:53;5.60;;;3.57;;
16119;SDS011;12670;53.502;10.252;2023-07-20T03:33:58;7.60;;;3.77;;
16119;SDS011;12670;53.502;10.252;2023-07-20T03:37:00;5.33;;;3.50;;
16119;SDS011;12670;53.502;10.252;2023-07-20T03:40:06;7.17;;;3.80;;
16119;SDS011;12670;53.502;10.252;2023-07-20T03:43:09;5.33;;;3.77;;
16119;SDS011;12670;53.502;10.252;2023-07-20T03:46:12;6.73;;;4.50;;
16119;SDS011;12670;53.502;10.252;2023-07-20T03:49:16;13.97;;;4.70;;
16119;SDS011;12670;53.502;10.252;2023-07-20T03:52:19;5.70;;;4.50;;
16119;SDS011;12670;53.502;10.252;2023-07-20T03:55:21;6.10;;;4.10;;
16119;SDS011;12670;53.502;10.252;2023-07-20T03:58:24;5.93;;;4.30;;
16119;SDS011;12670;53.502;10.252;2023-07-20T04:01:27;7.43;;;4.60;;
16119;SDS011;12670;53.502;10.252;2023-07-20T04:04:31;5.53;;;3.70;;
16119;SDS011;12670;53.502;10.252;2023-07-20T04:07:34;5.37;;;3.63;;
16119;SDS011;12670;53.502;10.252;2023-07-20T04:10:36;6.13;;;3.30;;
16119;SDS011;12670;53.502;10.252;2023-07-20T04:13:39;5.70;;;3.50;;
16119;SDS011;12670;53.502;10.252;2023-07-20T04:16:42;7.70;;;3.00;;
16119;SDS011;12670;53.502;10.252;2023-07-20T04:19:46;2.97;;;2.43;;
16119;SDS011;12670;53.502;10.252;2023-07-20T04:22:49;3.70;;;2.70;;
16119;SDS011;12670;53.502;10.252;2023-07-20T04:25:52;4.20;;;2.53;;
16119;SDS011;12670;53.502;10.252;2023-07-20T04:28:55;3.97;;;2.40;;
16119;SDS011;12670;53.502;10.252;2023-07-20T04:31:57;4.57;;;2.33;;
16119;SDS011;12670;53.502;10.252;2023-07-20T04:35:05;5.33;;;2.30;;
16119;SDS011;12670;53.502;10.252;2023-07-20T04:38:08;3.23;;;2.50;;
16119;SDS011;12670;53.502;10.252;2023-07-20T04:41:11;3.07;;;2.40;;
16119;SDS011;12670;53.502;10.252;2023-07-20T04:44:14;5.93;;;2.70;;
16119;SDS011;12670;53.502;10.252;2023-07-20T04:47:17;4.93;;;2.53;;
16119;SDS011;12670;53.502;10.252;2023-07-20T04:50:21;4.03;;;2.60;;
16119;SDS011;12670;53.502;10.252;2023-07-20T04:53:25;6.00;;;2.90;;
16119;SDS011;12670;53.502;10.252;2023-07-20T04:56:28;5.63;;;2.90;;
16119;SDS011;12670;53.502;10.252;2023-07-20T04:59:30;8.23;;;3.50;;
16119;SDS011;12670;53.502;10.252;2023-07-20T05:02:35;5.30;;;3.53;;
16119;SDS011;12670;53.502;10.252;2023-07-20T05:05:39;4.80;;;3.73;;
16119;SDS011;12670;53.502;10.252;2023-07-20T05:08:42;4.87;;;3.67;;
16119;SDS011;12670;53.502;10.252;2023-07-20T05:11:45;4.63;;;3.63;;
16119;SDS011;12670;53.502;10.252;2023-07-20T05:14:49;5.83;;;3.60;;
16119;SDS011;12670;53.502;10.252;2023-07-20T05:17:51;6.53;;;4.00;;
16119;SDS011;12670;53.502;10.252;2023-07-20T05:20:55;5.27;;;4.00;;
16119;SDS011;12670;53.502;10.252;2023-07-20T05:23:58;4.77;;;3.67;;
16119;SDS011;12670;53.502;10.252;2023-07-20T05:27:01;6.33;;;3.87;;
16119;SDS011;12670;53.502;10.252;2023-07-20T05:30:05;6.67;;;3.73;;
16119;SDS011;12670;53.502;10.252;2023-07-20T05:33:08;6.73;;;3.73;;
16119;SDS011;12670;53.502;10.252;2023-07-20T05:36:12;5.77;;;3.87;;
16119;SDS011;12670;53.502;10.252;2023-07-20T05:39:16;4.90;;;3.63;;
16119;SDS011;12670;53.502;10.252;2023-07-20T05:42:19;6.37;;;3.73;;
16119;SDS011;12670;53.502;10.252;2023-07-20T05:45:21;4.83;;;2.97;;
16119;SDS011;12670;53.502;10.252;2023-07-20T05:48:24;7.67;;;3.67;;
16119;SDS011;12670;53.502;10.252;2023-07-20T05:51:28;6.30;;;2.90;;
16119;SDS011;12670;53.502;10.252;2023-07-20T05:54:31;3.87;;;2.43;;
16119;SDS011;12670;53.502;10.252;2023-07-20T05:57:34;4.73;;;2.57;;
16119;SDS011;12670;53.502;10.252;2023-07-20T06:00:36;3.90;;;2.90;;
16119;SDS011;12670;53.502;10.252;2023-07-20T06:03:39;5.97;;;2.63;;
16119;SDS011;12670;53.502;10.252;2023-07-20T06:06:43;2.60;;;2.00;;
16119;SDS011;12670;53.502;10.252;2023-07-20T06:09:46;3.10;;;2.33;;
16119;SDS011;12670;53.502;10.252;2023-07-20T06:12:49;5.77;;;2.60;;
16119;SDS011;12670;53.502;10.252;2023-07-20T06:15:52;5.67;;;2.50;;
16119;SDS011;12670;53.502;10.252;2023-07-20T06:18:55;3.90;;;2.10;;
16119;SDS011;12670;53.502;10.252;2023-07-20T06:21:59;4.17;;;2.10;;
16119;SDS011;12670;53.502;10.252;2023-07-20T06:25:01;5.67;;;1.73;;
16119;SDS011;12670;53.502;10.252;2023-07-20T06:28:05;5.13;;;2.13;;
16119;SDS011;12670;53.502;10.252;2023-07-20T06:31:07;5.73;;;2.10;;
16119;SDS011;12670;53.502;10.252;2023-07-20T06:34:10;4.97;;;2.13;;
16119;SDS011;12670;53.502;10.252;2023-07-20T06:37:14;4.53;;;2.40;;
16119;SDS011;12670;53.502;10.252;2023-07-20T06:40:17;5.00;;;2.50;;
16119;SDS011;12670;53.502;10.252;2023-07-20T06:43:23;8.90;;;2.67;;
16119;SDS011;12670;53.502;10.252;2023-07-20T06:46:28;2.90;;;2.00;;
16119;SDS011;12670;53.502;10.252;2023-07-20T06:49:31;4.77;;;2.50;;
16119;SDS011;12670;53.502;10.252;2023-07-20T06:52:35;6.37;;;2.50;;
16119;SDS011;12670;53.502;10.252;2023-07-20T06:55:38;2.63;;;1.87;;
16119;SDS011;12670;53.502;10.252;2023-07-20T06:58:43;3.90;;;1.87;;
16119;SDS011;12670;53.502;10.252;2023-07-20T07:01:45;4.27;;;1.73;;
16119;SDS011;12670;53.502;10.252;2023-07-20T07:04:48;4.40;;;1.60;;
16119;SDS011;12670;53.502;10.252;2023-07-20T07:08:00;7.70;;;1.80;;
16119;SDS011;12670;53.502;10.252;2023-07-20T07:11:03;4.27;;;1.80;;
16119;SDS011;12670;53.502;10.252;2023-07-20T07:14:06;3.70;;;1.67;;
16119;SDS011;12670;53.502;10.252;2023-07-20T07:17:09;5.83;;;1.87;;
16119;SDS011;12670;53.502;10.252;2023-07-20T07:20:12;6.67;;;1.63;;
16119;SDS011;12670;53.502;10.252;2023-07-20T07:23:23;5.40;;;1.50;;
16119;SDS011;12670;53.502;10.252;2023-07-20T07:26:25;4.10;;;1.90;;
16119;SDS011;12670;53.502;10.252;2023-07-20T07:29:28;5.50;;;1.83;;
16119;SDS011;12670;53.502;10.252;2023-07-20T07:32:31;4.10;;;1.60;;
16119;SDS011;12670;53.502;10.252;2023-07-20T07:35:34;5.80;;;1.50;;
16119;SDS011;12670;53.502;10.252;2023-07-20T07:38:38;8.47;;;1.60;;
16119;SDS011;12670;53.502;10.252;2023-07-20T07:42:00;1.77;;;1.30;;
16119;SDS011;12670;53.502;10.252;2023-07-20T07:45:03;6.50;;;1.50;;
16119;SDS011;12670;53.502;10.252;2023-07-20T07:48:07;9.17;;;1.60;;
16119;SDS011;12670;53.502;10.252;2023-07-20T07:51:12;3.77;;;1.50;;
16119;SDS011;12670;53.502;10.252;2023-07-20T07:54:18;3.23;;;1.20;;
16119;SDS011;12670;53.502;10.252;2023-07-20T07:57:20;4.87;;;1.40;;
16119;SDS011;12670;53.502;10.252;2023-07-20T08:00:23;3.73;;;1.40;;
16119;SDS011;12670;53.502;10.252;2023-07-20T08:03:26;3.53;;;1.30;;
16119;SDS011;12670;53.502;10.252;2023-07-20T08:06:29;6.10;;;1.30;;
16119;SDS011;12670;53.502;10.252;2023-07-20T08:09:34;5.30;;;1.40;;
16119;SDS011;12670;53.502;10.252;2023-07-20T08:12:36;5.53;;;1.20;;
16119;SDS011;12670;53.502;10.252;2023-07-20T08:15:39;4.20;;;1.40;;
16119;SDS011;12670;53.502;10.252;2023-07-20T08:18:44;3.30;;;1.20;;
16119;SDS011;12670;53.502;10.252;2023-07-20T08:21:47;5.87;;;1.40;;
16119;SDS011;12670;53.502;10.252;2023-07-20T08:24:51;5.23;;;1.70;;
16119;SDS011;12670;53.502;10.252;2023-07-20T08:27:54;4.70;;;1.50;;
16119;SDS011;12670;53.502;10.252;2023-07-20T08:30:57;3.73;;;1.33;;
16119;SDS011;12670;53.502;10.252;2023-07-20T08:33:59;3.43;;;1.43;;
16119;SDS011;12670;53.502;10.252;2023-07-20T08:37:10;5.53;;;1.70;;
16119;SDS011;12670;53.502;10.252;2023-07-20T08:40:14;4.03;;;1.73;;
16119;SDS011;12670;53.502;10.252;2023-07-20T08:43:17;5.13;;;1.90;;
16119;SDS011;12670;53.502;10.252;2023-07-20T08:46:20;5.67;;;1.90;;
16119;SDS011;12670;53.502;10.252;2023-07-20T08:49:25;4.93;;;1.70;;
16119;SDS011;12670;53.502;10.252;2023-07-20T08:52:28;7.37;;;2.17;;
16119;SDS011;12670;53.502;10.252;2023-07-20T08:55:33;7.30;;;2.30;;
16119;SDS011;12670;53.502;10.252;2023-07-20T08:58:37;3.60;;;1.47;;
16119;SDS011;12670;53.502;10.252;2023-07-20T09:01:41;5.23;;;1.53;;
16119;SDS011;12670;53.502;10.252;2023-07-20T09:04:45;9.67;;;1.80;;
16119;SDS011;12670;53.502;10.252;2023-07-20T09:07:48;4.47;;;1.80;;
16119;SDS011;12670;53.502;10.252;2023-07-20T09:10:53;4.73;;;1.90;;
16119;SDS011;12670;53.502;10.252;2023-07-20T09:14:02;5.20;;;2.00;;
16119;SDS011;12670;53.502;10.252;2023-07-20T09:17:05;3.93;;;1.60;;
16119;SDS011;12670;53.502;10.252;2023-07-20T09:20:15;5.67;;;2.13;;
16119;SDS011;12670;53.502;10.252;2023-07-20T09:23:29;6.17;;;1.87;;
16119;SDS011;12670;53.502;10.252;2023-07-20T09:26:34;4.07;;;1.60;;
16119;SDS011;12670;53.502;10.252;2023-07-20T09:29:49;6.03;;;1.70;;
16119;SDS011;12670;53.502;10.252;2023-07-20T09:32:52;6.53;;;1.87;;
16119;SDS011;12670;53.502;10.252;2023-07-20T09:36:01;4.30;;;2.10;;
16119;SDS011;12670;53.502;10.252;2023-07-20T09:39:24;9.63;;;2.90;;
16119;SDS011;12670;53.502;10.252;2023-07-20T09:42:31;10.30;;;2.27;;
16119;SDS011;12670;53.502;10.252;2023-07-20T09:45:35;3.53;;;1.70;;
16119;SDS011;12670;53.502;10.252;2023-07-20T09:48:51;4.70;;;1.83;;
16119;SDS011;12670;53.502;10.252;2023-07-20T09:51:57;5.13;;;1.87;;
16119;SDS011;12670;53.502;10.252;2023-07-20T09:55:01;7.23;;;1.93;;
16119;SDS011;12670;53.502;10.252;2023-07-20T09:58:07;6.77;;;1.80;;
16119;SDS011;12670;53.502;10.252;2023-07-20T10:01:10;6.30;;;1.70;;
16119;SDS011;12670;53.502;10.252;2023-07-20T10:04:17;5.33;;;1.77;;
16119;SDS011;12670;53.502;10.252;2023-07-20T10:07:24;5.77;;;1.93;;
16119;SDS011;12670;53.502;10.252;2023-07-20T10:10:29;3.63;;;1.60;;
16119;SDS011;12670;53.502;10.252;2023-07-20T10:13:36;4.70;;;1.40;;
16119;SDS011;12670;53.502;10.252;2023-07-20T10:16:42;5.47;;;1.60;;
16119;SDS011;12670;53.502;10.252;2023-07-20T10:19:51;4.30;;;1.27;;
16119;SDS011;12670;53.502;10.252;2023-07-20T10:22:57;2.60;;;1.13;;
16119;SDS011;12670;53.502;10.252;2023-07-20T10:26:00;4.07;;;1.07;;
16119;SDS011;12670;53.502;10.252;2023-07-20T10:29:05;3.07;;;1.33;;
16119;SDS011;12670;53.502;10.252;2023-07-20T10:32:08;3.90;;;1.10;;
16119;SDS011;12670;53.502;10.252;2023-07-20T10:35:12;1.63;;;0.80;;
16119;SDS011;12670;53.502;10.252;2023-07-20T10:38:16;4.53;;;1.10;;
16119;SDS011;12670;53.502;10.252;2023-07-20T10:41:19;5.43;;;1.02;;
16119;SDS011;12670;53.502;10.252;2023-07-20T10:44:24;2.63;;;0.98;;
16119;SDS011;12670;53.502;10.252;2023-07-20T10:47:26;4.85;;;1.05;;
16119;SDS011;12670;53.502;10.252;2023-07-20T10:50:29;3.85;;;1.00;;
16119;SDS011;12670;53.502;10.252;2023-07-20T10:53:33;4.43;;;1.23;;
16119;SDS011;12670;53.502;10.252;2023-07-20T10:56:37;3.47;;;1.20;;
16119;SDS011;12670;53.502;10.252;2023-07-20T10:59:41;3.97;;;1.27;;
16119;SDS011;12670;53.502;10.252;2023-07-20T11:02:45;2.85;;;0.85;;
16119;SDS011;12670;53.502;10.252;2023-07-20T11:05:52;2.85;;;1.20;;
16119;SDS011;12670;53.502;10.252;2023-07-20T11:08:55;3.15;;;0.90;;
16119;SDS011;12670;53.502;10.252;2023-07-20T11:12:09;2.15;;;1.02;;
16119;SDS011;12670;53.502;10.252;2023-07-20T11:15:13;2.03;;;0.90;;
16119;SDS011;12670;53.502;10.252;2023-07-20T11:18:17;3.40;;;1.17;;
16119;SDS011;12670;53.502;10.252;2023-07-20T11:21:21;2.15;;;1.00;;
16119;SDS011;12670;53.502;10.252;2023-07-20T11:24:24;3.20;;;0.90;;
16119;SDS011;12670;53.502;10.252;2023-07-20T11:27:26;3.03;;;1.00;;
16119;SDS011;12670;53.502;10.252;2023-07-20T11:30:33;2.88;;;0.90;;
16119;SDS011;12670;53.502;10.252;2023-07-20T11:33:36;3.33;;;0.90;;
16119;SDS011;12670;53.502;10.252;2023-07-20T11:36:40;5.03;;;1.20;;
16119;SDS011;12670;53.502;10.252;2023-07-20T11:39:46;2.88;;;0.80;;
16119;SDS011;12670;53.502;10.252;2023-07-20T11:42:49;3.10;;;1.00;;
16119;SDS011;12670;53.502;10.252;2023-07-20T11:45:57;3.42;;;1.10;;
16119;SDS011;12670;53.502;10.252;2023-07-20T11:49:00;2.47;;;1.00;;
16119;SDS011;12670;53.502;10.252;2023-07-20T11:52:04;2.08;;;0.77;;
16119;SDS011;12670;53.502;10.252;2023-07-20T11:55:08;3.25;;;1.05;;
16119;SDS011;12670;53.502;10.252;2023-07-20T11:58:12;1.55;;;0.65;;
16119;SDS011;12670;53.502;10.252;2023-07-20T12:01:19;3.25;;;1.00;;
16119;SDS011;12670;53.502;10.252;2023-07-20T12:04:22;1.42;;;1.00;;
16119;SDS011;12670;53.502;10.252;2023-07-20T12:07:25;3.10;;;0.80;;
16119;SDS011;12670;53.502;10.252;2023-07-20T12:10:30;3.50;;;1.00;;
16119;SDS011;12670;53.502;10.252;2023-07-20T12:13:40;2.80;;;0.80;;
16119;SDS011;12670;53.502;10.252;2023-07-20T12:16:52;3.65;;;1.00;;
16119;SDS011;12670;53.502;10.252;2023-07-20T12:19:57;2.58;;;0.90;;
16119;SDS011;12670;53.502;10.252;2023-07-20T12:23:00;3.53;;;1.02;;
16119;SDS011;12670;53.502;10.252;2023-07-20T12:26:05;2.60;;;0.90;;
16119;SDS011;12670;53.502;10.252;2023-07-20T12:29:09;2.53;;;0.90;;
16119;SDS011;12670;53.502;10.252;2023-07-20T12:32:13;3.15;;;1.00;;
16119;SDS011;12670;53.502;10.252;2023-07-20T12:35:15;2.97;;;0.98;;
16119;SDS011;12670;53.502;10.252;2023-07-20T12:38:18;5.63;;;1.00;;
16119;SDS011;12670;53.502;10.252;2023-07-20T12:41:21;3.67;;;1.05;;
16119;SDS011;12670;53.502;10.252;2023-07-20T12:44:23;4.75;;;1.10;;
16119;SDS011;12670;53.502;10.252;2023-07-20T12:47:27;3.78;;;1.10;;
16119;SDS011;12670;53.502;10.252;2023-07-20T12:50:30;3.88;;;0.90;;
16119;SDS011;12670;53.502;10.252;2023-07-20T12:53:33;4.55;;;1.20;;
16119;SDS011;12670;53.502;10.252;2023-07-20T12:56:36;5.53;;;1.10;;
16119;SDS011;12670;53.502;10.252;2023-07-20T12:59:41;8.40;;;1.30;;
16119;SDS011;12670;53.502;10.252;2023-07-20T13:02:45;4.03;;;1.17;;
16119;SDS011;12670;53.502;10.252;2023-07-20T13:05:49;6.20;;;1.30;;
16119;SDS011;12670;53.502;10.252;2023-07-20T13:08:55;4.10;;;0.97;;
16119;SDS011;12670;53.502;10.252;2023-07-20T13:11:59;4.10;;;1.15;;
16119;SDS011;12670;53.502;10.252;2023-07-20T13:15:03;3.63;;;0.93;;
16119;SDS011;12670;53.502;10.252;2023-07-20T13:18:09;3.35;;;0.90;;
16119;SDS011;12670;53.502;10.252;2023-07-20T13:21:12;6.85;;;1.13;;
16119;SDS011;12670;53.502;10.252;2023-07-20T13:24:14;3.50;;;1.10;;
16119;SDS011;12670;53.502;10.252;2023-07-20T13:27:17;5.15;;;1.23;;
16119;SDS011;12670;53.502;10.252;2023-07-20T13:30:20;4.30;;;1.10;;
16119;SDS011;12670;53.502;10.252;2023-07-20T13:33:24;3.17;;;1.00;;
16119;SDS011;12670;53.502;10.252;2023-07-20T13:36:29;7.80;;;1.67;;
16119;SDS011;12670;53.502;10.252;2023-07-20T13:39:32;6.38;;;1.40;;
16119;SDS011;12670;53.502;10.252;2023-07-20T13:42:35;5.05;;;1.33;;
16119;SDS011;12670;53.502;10.252;2023-07-20T13:45:39;7.88;;;1.25;;
16119;SDS011;12670;53.502;10.252;2023-07-20T13:48:43;4.35;;;1.17;;
16119;SDS011;12670;53.502;10.252;2023-07-20T13:51:46;5.00;;;1.10;;
16119;SDS011;12670;53.502;10.252;2023-07-20T13:55:08;4.05;;;1.17;;
16119;SDS011;12670;53.502;10.252;2023-07-20T13:58:11;2.80;;;0.70;;
16119;SDS011;12670;53.502;10.252;2023-07-20T14:01:14;3.47;;;0.88;;
16119;SDS011;12670;53.502;10.252;2023-07-20T14:04:31;2.40;;;0.85;;
16119;SDS011;12670;53.502;10.252;2023-07-20T14:07:34;1.77;;;0.85;;
16119;SDS011;12670;53.502;10.252;2023-07-20T14:10:37;6.57;;;0.88;;
16119;SDS011;12670;53.502;10.252;2023-07-20T14:13:43;2.22;;;0.90;;
16119;SDS011;12670;53.502;10.252;2023-07-20T14:16:48;2.58;;;0.90;;
16119;SDS011;12670;53.502;10.252;2023-07-20T14:19:52;2.35;;;0.80;;
16119;SDS011;12670;53.502;10.252;2023-07-20T14:22:55;1.63;;;0.80;;
16119;SDS011;12670;53.502;10.252;2023-07-20T14:25:59;2.08;;;0.88;;
16119;SDS011;12670;53.502;10.252;2023-07-20T14:29:02;2.72;;;1.02;;
16119;SDS011;12670;53.502;10.252;2023-07-20T14:32:05;0.98;;;0.75;;
16119;SDS011;12670;53.502;10.252;2023-07-20T14:35:10;3.45;;;0.90;;
16119;SDS011;12670;53.502;10.252;2023-07-20T14:38:12;1.92;;;0.80;;
16119;SDS011;12670;53.502;10.252;2023-07-20T14:41:15;2.00;;;0.85;;
16119;SDS011;12670;53.502;10.252;2023-07-20T14:44:18;1.85;;;0.65;;
16119;SDS011;12670;53.502;10.252;2023-07-20T14:47:21;1.90;;;0.90;;
16119;SDS011;12670;53.502;10.252;2023-07-20T14:50:26;3.25;;;1.10;;
16119;SDS011;12670;53.502;10.252;2023-07-20T14:53:28;3.78;;;0.90;;
16119;SDS011;12670;53.502;10.252;2023-07-20T14:56:34;2.33;;;1.00;;
16119;SDS011;12670;53.502;10.252;2023-07-20T14:59:39;3.33;;;0.90;;
16119;SDS011;12670;53.502;10.252;2023-07-20T15:02:42;1.40;;;0.90;;
16119;SDS011;12670;53.502;10.252;2023-07-20T15:05:46;3.40;;;1.00;;
16119;SDS011;12670;53.502;10.252;2023-07-20T15:08:49;2.85;;;0.93;;
16119;SDS011;12670;53.502;10.252;2023-07-20T15:11:52;1.25;;;0.70;;
16119;SDS011;12670;53.502;10.252;2023-07-20T15:15:02;1.33;;;0.70;;
16119;SDS011;12670;53.502;10.252;2023-07-20T15:18:06;16.88;;;9.20;;
16119;SDS011;12670;53.502;10.252;2023-07-20T15:21:10;4.20;;;1.15;;
16119;SDS011;12670;53.502;10.252;2023-07-20T15:24:13;5.85;;;1.20;;
16119;SDS011;12670;53.502;10.252;2023-07-20T15:27:16;1.92;;;0.90;;
16119;SDS011;12670;53.502;10.252;2023-07-20T15:30:19;3.88;;;1.10;;
16119;SDS011;12670;53.502;10.252;2023-07-20T15:33:24;4.15;;;1.00;;
16119;SDS011;12670;53.502;10.252;2023-07-20T15:36:29;3.95;;;1.27;;
16119;SDS011;12670;53.502;10.252;2023-07-20T15:39:32;2.85;;;1.00;;
16119;SDS011;12670;53.502;10.252;2023-07-20T15:42:35;5.30;;;1.02;;
16119;SDS011;12670;53.502;10.252;2023-07-20T15:45:38;6.55;;;2.70;;
16119;SDS011;12670;53.502;10.252;2023-07-20T15:48:41;3.25;;;1.60;;
16119;SDS011;12670;53.502;10.252;2023-07-20T15:51:47;3.92;;;1.10;;
16119;SDS011;12670;53.502;10.252;2023-07-20T15:54:50;5.78;;;1.60;;
16119;SDS011;12670;53.502;10.252;2023-07-20T15:57:57;4.13;;;1.92;;
16119;SDS011;12670;53.502;10.252;2023-07-20T16:01:00;3.33;;;1.45;;
16119;SDS011;12670;53.502;10.252;2023-07-20T16:04:03;12.88;;;4.60;;
16119;SDS011;12670;53.502;10.252;2023-07-20T16:07:07;4.93;;;1.90;;
16119;SDS011;12670;53.502;10.252;2023-07-20T16:10:09;8.52;;;2.47;;
16119;SDS011;12670;53.502;10.252;2023-07-20T16:13:12;7.25;;;2.15;;
16119;SDS011;12670;53.502;10.252;2023-07-20T16:16:15;3.90;;;1.35;;
16119;SDS011;12670;53.502;10.252;2023-07-20T16:19:18;8.15;;;2.55;;
16119;SDS011;12670;53.502;10.252;2023-07-20T16:22:22;4.70;;;2.00;;
16119;SDS011;12670;53.502;10.252;2023-07-20T16:25:25;3.58;;;1.27;;
16119;SDS011;12670;53.502;10.252;2023-07-20T16:28:28;3.72;;;0.90;;
16119;SDS011;12670;53.502;10.252;2023-07-20T16:31:30;2.55;;;1.30;;
16119;SDS011;12670;53.502;10.252;2023-07-20T16:34:33;10.02;;;4.65;;
16119;SDS011;12670;53.502;10.252;2023-07-20T16:37:40;3.50;;;1.30;;
16119;SDS011;12670;53.502;10.252;2023-07-20T16:40:43;4.68;;;2.35;;
16119;SDS011;12670;53.502;10.252;2023-07-20T16:43:48;6.60;;;2.58;;
16119;SDS011;12670;53.502;10.252;2023-07-20T16:46:56;3.97;;;1.30;;
16119;SDS011;12670;53.502;10.252;2023-07-20T16:49:58;9.77;;;5.03;;
16119;SDS011;12670;53.502;10.252;2023-07-20T16:53:02;3.63;;;1.50;;
16119;SDS011;12670;53.502;10.252;2023-07-20T16:56:05;5.03;;;1.70;;
16119;SDS011;12670;53.502;10.252;2023-07-20T16:59:07;5.43;;;1.40;;
16119;SDS011;12670;53.502;10.252;2023-07-20T17:02:10;3.22;;;1.30;;
16119;SDS011;12670;53.502;10.252;2023-07-20T17:05:13;3.73;;;1.50;;
16119;SDS011;12670;53.502;10.252;2023-07-20T17:08:17;11.68;;;5.95;;
16119;SDS011;12670;53.502;10.252;2023-07-20T17:11:22;2.23;;;1.30;;
16119;SDS011;12670;53.502;10.252;2023-07-20T17:14:25;5.33;;;2.13;;
16119;SDS011;12670;53.502;10.252;2023-07-20T17:17:28;3.50;;;1.40;;
16119;SDS011;12670;53.502;10.252;2023-07-20T17:20:31;4.67;;;1.50;;
16119;SDS011;12670;53.502;10.252;2023-07-20T17:23:39;3.87;;;1.60;;
16119;SDS011;12670;53.502;10.252;2023-07-20T17:26:44;4.20;;;1.57;;
16119;SDS011;12670;53.502;10.252;2023-07-20T17:29:47;5.03;;;1.70;;
16119;SDS011;12670;53.502;10.252;2023-07-20T17:32:50;4.67;;;2.10;;
16119;SDS011;12670;53.502;10.252;2023-07-20T17:35:52;4.00;;;1.40;;
16119;SDS011;12670;53.502;10.252;2023-07-20T17:39:16;13.33;;;6.30;;
16119;SDS011;12670;53.502;10.252;2023-07-20T17:42:19;4.40;;;1.93;;
16119;SDS011;12670;53.502;10.252;2023-07-20T17:45:25;8.90;;;2.43;;
16119;SDS011;12670;53.502;10.252;2023-07-20T17:48:28;8.43;;;2.03;;
16119;SDS011;12670;53.502;10.252;2023-07-20T17:51:31;4.57;;;2.03;;
16119;SDS011;12670;53.502;10.252;2023-07-20T17:54:35;11.20;;;5.30;;
16119;SDS011;12670;53.502;10.252;2023-07-20T17:57:37;8.23;;;2.60;;
16119;SDS011;12670;53.502;10.252;2023-07-20T18:00:40;6.70;;;2.63;;
16119;SDS011;12670;53.502;10.252;2023-07-20T18:03:43;7.90;;;3.57;;
16119;SDS011;12670;53.502;10.252;2023-07-20T18:06:45;6.67;;;2.43;;
16119;SDS011;12670;53.502;10.252;2023-07-20T18:09:49;7.60;;;1.73;;
16119;SDS011;12670;53.502;10.252;2023-07-20T18:12:52;5.33;;;2.23;;